sensor_id;sensor_type;location;lat;lon;timestamp;pressure;altitude;pressure_sealevel;temperature;humidity
43312;BME280;30041;48.300;16.352;2022-12-18T00:01:24;101307.91;;;21.85;43.09
43312;BME280;30041;48.300;16.352;2022-12-18T00:03:51;101300.66;;;21.85;43.09
43312;BME280;30041;48.300;16.352;2022-12-18T00:06:17;101297.94;;;21.85;43.08
43312;BME280;30041;48.300;16.352;2022-12-18T00:08:44;101312.31;;;21.86;42.74
43312;BME280;30041;48.300;16.352;2022-12-18T00:11:18;101308.75;;;21.85;42.89
43312;BME280;30041;48.300;16.352;2022-12-18T00:13:45;101318.72;;;21.85;42.94
43312;BME280;30041;48.300;16.352;2022-12-18T00:16:13;101312.69;;;21.83;43.16
43312;BME280;30041;48.300;16.352;2022-12-18T00:18:39;101315.84;;;21.86;42.94
43312;BME280;30041;48.300;16.352;2022-12-18T00:21:07;101329.31;;;21.86;42.75
43312;BME280;30041;48.300;16.352;2022-12-18T00:23:34;101323.09;;;21.86;42.92
43312;BME280;30041;48.300;16.352;2022-12-18T00:26:01;101325.81;;;21.86;42.93
43312;BME280;30041;48.300;16.352;2022-12-18T00:28:27;101323.09;;;21.86;42.88
43312;BME280;30041;48.300;16.352;2022-12-18T00:31:04;101327.88;;;21.84;42.89
43312;BME280;30041;48.300;16.352;2022-12-18T00:33:30;101326.00;;;21.84;42.90
43312;BME280;30041;48.300;16.352;2022-12-18T00:36:09;101340.31;;;21.85;43.04
43312;BME280;30041;48.300;16.352;2022-12-18T00:38:35;101339.28;;;21.86;42.92
43312;BME280;30041;48.300;16.352;2022-12-18T00:41:01;101343.00;;;21.85;42.84
43312;BME280;30041;48.300;16.352;2022-12-18T00:43:27;101342.38;;;21.83;42.87
43312;BME280;30041;48.300;16.352;2022-12-18T00:45:53;101343.84;;;21.85;42.82
43312;BME280;30041;48.300;16.352;2022-12-18T00:48:26;101352.16;;;21.84;42.93
43312;BME280;30041;48.300;16.352;2022-12-18T00:50:52;101350.47;;;21.83;42.91
43312;BME280;30041;48.300;16.352;2022-12-18T00:53:17;101355.50;;;21.86;42.93
43312;BME280;30041;48.300;16.352;2022-12-18T00:55:43;101353.63;;;21.86;42.71
43312;BME280;30041;48.300;16.352;2022-12-18T00:58:10;101350.28;;;21.84;42.61
43312;BME280;30041;48.300;16.352;2022-12-18T01:00:36;101364.41;;;21.86;42.92
43312;BME280;30041;48.300;16.352;2022-12-18T01:03:03;101366.47;;;21.84;42.91
43312;BME280;30041;48.300;16.352;2022-12-18T01:05:29;101366.66;;;21.83;42.82
43312;BME280;30041;48.300;16.352;2022-12-18T01:07:56;101366.47;;;21.84;42.69
43312;BME280;30041;48.300;16.352;2022-12-18T01:10:22;101363.38;;;21.87;42.64
43312;BME280;30041;48.300;16.352;2022-12-18T01:12:48;101369.00;;;21.86;42.72
43312;BME280;30041;48.300;16.352;2022-12-18T01:15:14;101363.59;;;21.86;42.88
43312;BME280;30041;48.300;16.352;2022-12-18T01:17:41;101372.28;;;21.88;42.66
43312;BME280;30041;48.300;16.352;2022-12-18T01:20:08;101375.00;;;21.88;42.78
43312;BME280;30041;48.300;16.352;2022-12-18T01:22:34;101376.69;;;21.89;42.68
43312;BME280;30041;48.300;16.352;2022-12-18T01:25:04;101377.09;;;21.86;42.61
43312;BME280;30041;48.300;16.352;2022-12-18T01:27:30;101378.75;;;21.87;42.90
43312;BME280;30041;48.300;16.352;2022-12-18T01:29:55;101376.69;;;21.89;42.74
43312;BME280;30041;48.300;16.352;2022-12-18T01:32:21;101377.50;;;21.89;42.65
43312;BME280;30041;48.300;16.352;2022-12-18T01:34:47;101383.72;;;21.90;42.68
43312;BME280;30041;48.300;16.352;2022-12-18T01:37:13;101386.44;;;21.90;42.84
43312;BME280;30041;48.300;16.352;2022-12-18T01:39:38;101387.47;;;21.89;42.74
43312;BME280;30041;48.300;16.352;2022-12-18T01:42:10;101393.69;;;21.89;42.51
43312;BME280;30041;48.300;16.352;2022-12-18T01:47:45;101396.59;;;21.88;42.76
43312;BME280;30041;48.300;16.352;2022-12-18T01:52:39;101402.84;;;21.88;42.61
43312;BME280;30041;48.300;16.352;2022-12-18T01:55:07;101396.22;;;21.91;42.58
43312;BME280;30041;48.300;16.352;2022-12-18T01:57:34;101395.16;;;21.92;42.56
43312;BME280;30041;48.300;16.352;2022-12-18T02:00:05;101397.22;;;21.90;42.64
43312;BME280;30041;48.300;16.352;2022-12-18T02:02:33;101392.88;;;21.89;42.50
43312;BME280;30041;48.300;16.352;2022-12-18T02:04:59;101395.75;;;21.87;42.64
43312;BME280;30041;48.300;16.352;2022-12-18T02:10:18;101398.88;;;21.84;42.66
43312;BME280;30041;48.300;16.352;2022-12-18T02:13:51;101400.34;;;21.87;42.75
43312;BME280;30041;48.300;16.352;2022-12-18T02:18:37;101403.03;;;21.87;42.83
43312;BME280;30041;48.300;16.352;2022-12-18T02:21:25;101399.88;;;21.83;42.66
43312;BME280;30041;48.300;16.352;2022-12-18T02:26:46;101403.63;;;21.82;42.63
43312;BME280;30041;48.300;16.352;2022-12-18T02:29:25;101409.03;;;21.82;42.58
43312;BME280;30041;48.300;16.352;2022-12-18T02:31:53;101415.06;;;21.84;42.66
43312;BME280;30041;48.300;16.352;2022-12-18T02:34:22;101415.88;;;21.85;42.50
43312;BME280;30041;48.300;16.352;2022-12-18T02:36:54;101421.28;;;21.85;42.62
43312;BME280;30041;48.300;16.352;2022-12-18T02:39:22;101422.09;;;21.85;42.54
43312;BME280;30041;48.300;16.352;2022-12-18T02:41:50;101418.59;;;21.85;42.61
43312;BME280;30041;48.300;16.352;2022-12-18T02:44:16;101425.84;;;21.84;42.66
43312;BME280;30041;48.300;16.352;2022-12-18T02:46:50;101425.03;;;21.84;42.61
43312;BME280;30041;48.300;16.352;2022-12-18T02:49:29;101431.25;;;21.84;42.69
43312;BME280;30041;48.300;16.352;2022-12-18T02:57:40;101431.44;;;21.83;42.46
43312;BME280;30041;48.300;16.352;2022-12-18T03:00:18;101445.97;;;21.82;42.67
43312;BME280;30041;48.300;16.352;2022-12-18T03:02:54;101445.97;;;21.82;42.72
43312;BME280;30041;48.300;16.352;2022-12-18T03:05:35;101447.63;;;21.83;42.68
43312;BME280;30041;48.300;16.352;2022-12-18T03:08:07;101450.53;;;21.81;42.65
43312;BME280;30041;48.300;16.352;2022-12-18T03:10:38;101445.97;;;21.82;42.63
43312;BME280;30041;48.300;16.352;2022-12-18T03:13:08;101438.06;;;21.80;42.57
43312;BME280;30041;48.300;16.352;2022-12-18T03:15:42;101438.91;;;21.81;42.56
43312;BME280;30041;48.300;16.352;2022-12-18T03:18:15;101435.56;;;21.79;42.52
43312;BME280;30041;48.300;16.352;2022-12-18T03:20:43;101434.31;;;21.81;42.44
43312;BME280;30041;48.300;16.352;2022-12-18T03:23:12;101440.59;;;21.82;42.64
43312;BME280;30041;48.300;16.352;2022-12-18T03:25:41;101443.28;;;21.82;42.53
43312;BME280;30041;48.300;16.352;2022-12-18T03:28:12;101440.97;;;21.79;42.49
43312;BME280;30041;48.300;16.352;2022-12-18T03:30:41;101439.94;;;21.80;42.46
43312;BME280;30041;48.300;16.352;2022-12-18T03:33:26;101444.69;;;21.77;42.53
43312;BME280;30041;48.300;16.352;2022-12-18T03:35:53;101439.13;;;21.79;42.46
43312;BME280;30041;48.300;16.352;2022-12-18T03:38:19;101446.34;;;21.79;42.64
43312;BME280;30041;48.300;16.352;2022-12-18T03:46:47;101451.09;;;21.76;42.49
43312;BME280;30041;48.300;16.352;2022-12-18T03:52:30;101444.69;;;21.77;42.56
43312;BME280;30041;48.300;16.352;2022-12-18T03:55:00;101445.53;;;21.78;42.44
43312;BME280;30041;48.300;16.352;2022-12-18T03:57:29;101456.50;;;21.76;42.64
43312;BME280;30041;48.300;16.352;2022-12-18T04:00:03;101455.50;;;21.77;42.44
43312;BME280;30041;48.300;16.352;2022-12-18T04:02:30;101448.41;;;21.76;42.56
43312;BME280;30041;48.300;16.352;2022-12-18T04:04:59;101452.97;;;21.76;42.46
43312;BME280;30041;48.300;16.352;2022-12-18T04:07:29;101464.59;;;21.76;42.57
43312;BME280;30041;48.300;16.352;2022-12-18T04:09:56;101468.16;;;21.77;42.44
43312;BME280;30041;48.300;16.352;2022-12-18T04:12:25;101476.03;;;21.79;42.57
43312;BME280;30041;48.300;16.352;2022-12-18T04:14:51;101479.78;;;21.77;42.38
43312;BME280;30041;48.300;16.352;2022-12-18T04:17:20;101478.09;;;21.76;42.42
43312;BME280;30041;48.300;16.352;2022-12-18T04:19:45;101475.41;;;21.76;42.37
43312;BME280;30041;48.300;16.352;2022-12-18T04:22:14;101482.66;;;21.76;42.46
43312;BME280;30041;48.300;16.352;2022-12-18T04:24:40;101475.41;;;21.76;42.31
43312;BME280;30041;48.300;16.352;2022-12-18T04:27:06;101479.97;;;21.76;42.50
43312;BME280;30041;48.300;16.352;2022-12-18T04:29:37;101481.00;;;21.75;42.50
43312;BME280;30041;48.300;16.352;2022-12-18T04:32:02;101493.66;;;21.74;42.42
43312;BME280;30041;48.300;16.352;2022-12-18T04:34:28;101497.00;;;21.76;42.29
43312;BME280;30041;48.300;16.352;2022-12-18T04:36:54;101497.00;;;21.76;42.26
43312;BME280;30041;48.300;16.352;2022-12-18T04:39:19;101498.03;;;21.75;42.25
43312;BME280;30041;48.300;16.352;2022-12-18T04:41:45;101502.59;;;21.75;42.43
43312;BME280;30041;48.300;16.352;2022-12-18T04:44:11;101496.34;;;21.74;42.37
43312;BME280;30041;48.300;16.352;2022-12-18T04:46:36;101506.31;;;21.74;42.42
43312;BME280;30041;48.300;16.352;2022-12-18T04:49:02;101498.22;;;21.74;42.45
43312;BME280;30041;48.300;16.352;2022-12-18T04:51:28;101505.31;;;21.75;42.32
43312;BME280;30041;48.300;16.352;2022-12-18T04:53:54;101497.19;;;21.75;42.40
43312;BME280;30041;48.300;16.352;2022-12-18T04:56:20;101506.13;;;21.75;42.30
43312;BME280;30041;48.300;16.352;2022-12-18T04:58:48;101509.22;;;21.72;42.42
43312;BME280;30041;48.300;16.352;2022-12-18T05:01:16;101516.09;;;21.75;42.29
43312;BME280;30041;48.300;16.352;2022-12-18T05:03:43;101524.25;;;21.82;42.43
43312;BME280;30041;48.300;16.352;2022-12-18T05:06:09;101522.56;;;21.81;42.04
43312;BME280;30041;48.300;16.352;2022-12-18T05:08:35;101535.41;;;21.79;42.29
43312;BME280;30041;48.300;16.352;2022-12-18T05:11:05;101538.75;;;21.81;42.36
43312;BME280;30041;48.300;16.352;2022-12-18T05:13:32;101531.72;;;21.80;42.11
43312;BME280;30041;48.300;16.352;2022-12-18T05:15:58;101537.09;;;21.80;42.25
43312;BME280;30041;48.300;16.352;2022-12-18T05:18:24;101529.84;;;21.80;42.09
43312;BME280;30041;48.300;16.352;2022-12-18T05:20:52;101535.88;;;21.82;42.09
43312;BME280;30041;48.300;16.352;2022-12-18T05:23:18;101543.16;;;21.82;42.05
43312;BME280;30041;48.300;16.352;2022-12-18T05:25:55;101544.63;;;21.84;42.17
43312;BME280;30041;48.300;16.352;2022-12-18T05:28:23;101537.75;;;21.82;42.05
43312;BME280;30041;48.300;16.352;2022-12-18T05:30:50;101538.75;;;21.81;42.36
43312;BME280;30041;48.300;16.352;2022-12-18T05:33:17;101540.03;;;21.85;42.05
43312;BME280;30041;48.300;16.352;2022-12-18T05:35:43;101555.59;;;21.83;42.23
43312;BME280;30041;48.300;16.352;2022-12-18T05:38:09;101554.38;;;21.85;41.90
43312;BME280;30041;48.300;16.352;2022-12-18T05:40:35;101551.88;;;21.84;42.21
43312;BME280;30041;48.300;16.352;2022-12-18T05:43:00;101553.53;;;21.85;41.83
43312;BME280;30041;48.300;16.352;2022-12-18T05:45:26;101554.78;;;21.82;42.06
43312;BME280;30041;48.300;16.352;2022-12-18T05:47:52;101548.16;;;21.85;41.85
43312;BME280;30041;48.300;16.352;2022-12-18T05:50:17;101547.50;;;21.83;41.94
43312;BME280;30041;48.300;16.352;2022-12-18T05:52:43;101558.28;;;21.83;42.06
43312;BME280;30041;48.300;16.352;2022-12-18T05:55:09;101557.66;;;21.81;42.12
43312;BME280;30041;48.300;16.352;2022-12-18T05:57:35;101547.69;;;21.81;42.08
43312;BME280;30041;48.300;16.352;2022-12-18T06:00:04;101544.81;;;21.83;41.96
43312;BME280;30041;48.300;16.352;2022-12-18T06:02:30;101553.66;;;21.76;41.75
43312;BME280;30041;48.300;16.352;2022-12-18T06:04:59;101562.63;;;21.77;41.83
43312;BME280;30041;48.300;16.352;2022-12-18T06:07:24;101562.41;;;21.79;41.86
43312;BME280;30041;48.300;16.352;2022-12-18T06:09:50;101575.53;;;21.82;41.96
43312;BME280;30041;48.300;16.352;2022-12-18T06:12:16;101581.88;;;21.74;41.24
43312;BME280;30041;48.300;16.352;2022-12-18T06:14:42;101579.66;;;21.77;41.43
43312;BME280;30041;48.300;16.352;2022-12-18T06:17:07;101580.06;;;21.81;41.59
43312;BME280;30041;48.300;16.352;2022-12-18T06:19:33;101581.75;;;21.82;41.67
43312;BME280;30041;48.300;16.352;2022-12-18T06:22:02;101593.38;;;21.83;41.60
43312;BME280;30041;48.300;16.352;2022-12-18T06:24:27;101597.13;;;21.82;41.64
43312;BME280;30041;48.300;16.352;2022-12-18T06:26:53;101595.91;;;21.84;41.69
43312;BME280;30041;48.300;16.352;2022-12-18T06:29:19;101606.25;;;21.81;41.89
43312;BME280;30041;48.300;16.352;2022-12-18T06:31:45;101607.94;;;21.82;41.74
43312;BME280;30041;48.300;16.352;2022-12-18T06:34:10;101599.19;;;21.80;41.63
43312;BME280;30041;48.300;16.352;2022-12-18T06:36:36;101604.56;;;21.80;41.79
43312;BME280;30041;48.300;16.352;2022-12-18T06:39:02;101607.72;;;21.83;41.71
43312;BME280;30041;48.300;16.352;2022-12-18T06:41:28;101609.59;;;21.83;41.84
43312;BME280;30041;48.300;16.352;2022-12-18T06:43:53;101609.59;;;21.83;41.78
43312;BME280;30041;48.300;16.352;2022-12-18T06:46:19;101611.28;;;21.84;41.67
43312;BME280;30041;48.300;16.352;2022-12-18T06:48:49;101609.75;;;21.81;41.71
43312;BME280;30041;48.300;16.352;2022-12-18T06:51:22;101618.06;;;21.80;41.95
43312;BME280;30041;48.300;16.352;2022-12-18T06:53:48;101620.38;;;21.83;41.73
43312;BME280;30041;48.300;16.352;2022-12-18T06:56:14;101631.00;;;21.84;41.64
43312;BME280;30041;48.300;16.352;2022-12-18T06:58:39;101631.19;;;21.83;41.73
43312;BME280;30041;48.300;16.352;2022-12-18T07:01:07;101633.50;;;21.86;41.77
43312;BME280;30041;48.300;16.352;2022-12-18T07:03:33;101641.78;;;21.84;41.63
43312;BME280;30041;48.300;16.352;2022-12-18T07:05:59;101641.78;;;21.84;41.65
43312;BME280;30041;48.300;16.352;2022-12-18T07:08:25;101651.53;;;21.85;41.67
43312;BME280;30041;48.300;16.352;2022-12-18T07:10:51;101661.34;;;21.86;41.68
43312;BME280;30041;48.300;16.352;2022-12-18T07:13:17;101663.19;;;21.86;41.82
43312;BME280;30041;48.300;16.352;2022-12-18T07:15:43;101661.50;;;21.85;41.77
43312;BME280;30041;48.300;16.352;2022-12-18T07:18:10;101658.81;;;21.85;41.78
43312;BME280;30041;48.300;16.352;2022-12-18T07:20:36;101662.34;;;21.85;41.89
43312;BME280;30041;48.300;16.352;2022-12-18T07:23:03;101668.59;;;21.86;41.78
43312;BME280;30041;48.300;16.352;2022-12-18T07:25:28;101673.59;;;21.89;41.68
43312;BME280;30041;48.300;16.352;2022-12-18T07:27:54;101674.63;;;21.88;41.64
43312;BME280;30041;48.300;16.352;2022-12-18T07:30:20;101681.88;;;21.87;41.79
43312;BME280;30041;48.300;16.352;2022-12-18T07:32:48;101670.25;;;21.87;41.71
43312;BME280;30041;48.300;16.352;2022-12-18T07:35:14;101683.75;;;21.87;41.77
43312;BME280;30041;48.300;16.352;2022-12-18T07:37:40;101681.06;;;21.87;41.75
43312;BME280;30041;48.300;16.352;2022-12-18T07:40:06;101687.75;;;21.91;41.69
43312;BME280;30041;48.300;16.352;2022-12-18T07:42:32;101691.69;;;21.88;41.75
43312;BME280;30041;48.300;16.352;2022-12-18T07:45:00;101693.16;;;21.91;41.95
43312;BME280;30041;48.300;16.352;2022-12-18T07:47:29;101700.59;;;21.89;41.74
43312;BME280;30041;48.300;16.352;2022-12-18T07:49:55;101706.66;;;21.91;41.69
43312;BME280;30041;48.300;16.352;2022-12-18T07:52:21;101710.00;;;21.93;41.67
43312;BME280;30041;48.300;16.352;2022-12-18T07:54:47;101710.34;;;21.90;41.77
43312;BME280;30041;48.300;16.352;2022-12-18T07:57:12;101712.63;;;21.71;39.94
43312;BME280;30041;48.300;16.352;2022-12-18T07:59:38;101703.06;;;21.39;39.13
43312;BME280;30041;48.300;16.352;2022-12-18T08:02:04;101700.66;;;21.29;39.68
43312;BME280;30041;48.300;16.352;2022-12-18T08:04:29;101723.16;;;21.22;40.24
43312;BME280;30041;48.300;16.352;2022-12-18T08:06:55;101725.38;;;21.18;40.16
43312;BME280;30041;48.300;16.352;2022-12-18T08:09:21;101718.50;;;21.15;40.09
43312;BME280;30041;48.300;16.352;2022-12-18T08:11:47;101719.53;;;21.14;40.03
43312;BME280;30041;48.300;16.352;2022-12-18T08:14:12;101727.63;;;21.14;40.18
43312;BME280;30041;48.300;16.352;2022-12-18T08:16:38;101733.19;;;21.13;40.15
43312;BME280;30041;48.300;16.352;2022-12-18T08:19:04;101733.19;;;21.13;39.95
43312;BME280;30041;48.300;16.352;2022-12-18T08:21:30;101729.84;;;21.11;40.03
43312;BME280;30041;48.300;16.352;2022-12-18T08:23:58;101726.09;;;21.12;39.95
43312;BME280;30041;48.300;16.352;2022-12-18T08:26:26;101728.53;;;21.07;40.10
43312;BME280;30041;48.300;16.352;2022-12-18T08:28:54;101721.94;;;21.09;40.00
43312;BME280;30041;48.300;16.352;2022-12-18T08:31:20;101731.88;;;21.09;39.96
43312;BME280;30041;48.300;16.352;2022-12-18T08:33:49;101732.06;;;21.07;40.01
43312;BME280;30041;48.300;16.352;2022-12-18T08:36:15;101729.56;;;21.06;40.07
43312;BME280;30041;48.300;16.352;2022-12-18T08:38:41;101739.31;;;21.07;40.10
43312;BME280;30041;48.300;16.352;2022-12-18T08:41:09;101740.16;;;21.07;40.05
43312;BME280;30041;48.300;16.352;2022-12-18T08:43:35;101734.19;;;21.12;39.88
43312;BME280;30041;48.300;16.352;2022-12-18T08:46:01;101727.25;;;21.32;39.81
43312;BME280;30041;48.300;16.352;2022-12-18T08:48:26;101725.56;;;21.31;40.19
43312;BME280;30041;48.300;16.352;2022-12-18T08:50:56;101740.28;;;21.29;40.42
43312;BME280;30041;48.300;16.352;2022-12-18T08:53:23;101740.00;;;21.24;39.84
43312;BME280;30041;48.300;16.352;2022-12-18T08:55:49;101738.13;;;21.24;39.92
43312;BME280;30041;48.300;16.352;2022-12-18T08:58:14;101747.31;;;21.30;39.74
43312;BME280;30041;48.300;16.352;2022-12-18T09:00:40;101746.69;;;21.28;40.35
43312;BME280;30041;48.300;16.352;2022-12-18T09:03:16;101746.59;;;21.21;40.41
43312;BME280;30041;48.300;16.352;2022-12-18T09:05:43;101746.28;;;21.16;40.91
43312;BME280;30041;48.300;16.352;2022-12-18T09:08:10;101744.63;;;21.15;40.79
43312;BME280;30041;48.300;16.352;2022-12-18T09:10:46;101749.53;;;21.11;41.02
43312;BME280;30041;48.300;16.352;2022-12-18T09:13:13;101753.56;;;21.15;41.03
43312;BME280;30041;48.300;16.352;2022-12-18T09:15:53;101749.00;;;21.16;41.26
43312;BME280;30041;48.300;16.352;2022-12-18T09:18:20;101761.47;;;21.17;41.53
43312;BME280;30041;48.300;16.352;2022-12-18T09:20:46;101755.03;;;21.18;41.67
43312;BME280;30041;48.300;16.352;2022-12-18T09:23:13;101765.00;;;21.18;41.82
43312;BME280;30041;48.300;16.352;2022-12-18T09:25:39;101763.31;;;21.31;42.09
43312;BME280;30041;48.300;16.352;2022-12-18T09:28:09;101766.06;;;21.46;41.94
43312;BME280;30041;48.300;16.352;2022-12-18T09:30:40;101771.09;;;21.49;42.18
43312;BME280;30041;48.300;16.352;2022-12-18T09:33:06;101767.19;;;21.52;42.23
43312;BME280;30041;48.300;16.352;2022-12-18T09:35:31;101764.22;;;21.47;42.21
43312;BME280;30041;48.300;16.352;2022-12-18T09:37:57;101760.84;;;21.45;42.54
43312;BME280;30041;48.300;16.352;2022-12-18T09:40:26;101744.00;;;21.43;42.50
43312;BME280;30041;48.300;16.352;2022-12-18T09:42:58;101746.41;;;21.38;42.81
43312;BME280;30041;48.300;16.352;2022-12-18T09:45:25;101755.28;;;21.46;42.69
43312;BME280;30041;48.300;16.352;2022-12-18T09:47:52;101748.69;;;21.49;42.74
43312;BME280;30041;48.300;16.352;2022-12-18T09:50:34;101755.63;;;21.43;42.87
43312;BME280;30041;48.300;16.352;2022-12-18T09:53:07;101747.84;;;21.48;42.56
43312;BME280;30041;48.300;16.352;2022-12-18T09:55:40;101738.63;;;21.43;42.72
43312;BME280;30041;48.300;16.352;2022-12-18T09:58:26;101739.53;;;21.35;42.83
43312;BME280;30041;48.300;16.352;2022-12-18T10:00:54;101743.78;;;21.00;38.23
43312;BME280;30041;48.300;16.352;2022-12-18T10:03:21;101746.03;;;21.26;40.47
43312;BME280;30041;48.300;16.352;2022-12-18T10:06:11;101749.25;;;21.44;40.64
43312;BME280;30041;48.300;16.352;2022-12-18T10:08:47;101730.78;;;21.33;41.31
43312;BME280;30041;48.300;16.352;2022-12-18T10:22:34;101728.81;;;21.27;41.01
43312;BME280;30041;48.300;16.352;2022-12-18T10:25:28;101711.44;;;21.29;41.28
43312;BME280;30041;48.300;16.352;2022-12-18T10:28:07;101724.91;;;21.29;41.53
43312;BME280;30041;48.300;16.352;2022-12-18T10:30:35;101718.03;;;21.27;41.25
43312;BME280;30041;48.300;16.352;2022-12-18T10:33:02;101711.16;;;21.24;41.13
43312;BME280;30041;48.300;16.352;2022-12-18T10:35:28;101708.47;;;21.24;40.99
43312;BME280;30041;48.300;16.352;2022-12-18T10:38:07;101707.16;;;21.20;40.79
43312;BME280;30041;48.300;16.352;2022-12-18T10:41:05;101711.72;;;21.20;40.69
43312;BME280;30041;48.300;16.352;2022-12-18T10:43:39;101706.06;;;21.14;40.64
43312;BME280;30041;48.300;16.352;2022-12-18T10:46:15;101707.88;;;21.14;40.46
43312;BME280;30041;48.300;16.352;2022-12-18T10:48:50;101701.50;;;21.15;40.31
43312;BME280;30041;48.300;16.352;2022-12-18T10:51:27;101702.50;;;21.14;40.36
43312;BME280;30041;48.300;16.352;2022-12-18T10:56:21;101688.84;;;21.15;40.23
43312;BME280;30041;48.300;16.352;2022-12-18T10:58:58;101689.66;;;21.16;40.10
43312;BME280;30041;48.300;16.352;2022-12-18T11:01:24;101693.97;;;21.10;40.15
43312;BME280;30041;48.300;16.352;2022-12-18T11:06:18;101694.63;;;21.12;39.77
43312;BME280;30041;48.300;16.352;2022-12-18T11:08:58;101695.63;;;21.11;39.67
43312;BME280;30041;48.300;16.352;2022-12-18T11:11:25;101691.06;;;21.12;39.70
43312;BME280;30041;48.300;16.352;2022-12-18T11:14:05;101685.03;;;21.10;39.68
43312;BME280;30041;48.300;16.352;2022-12-18T11:16:46;101697.50;;;21.11;39.56
43312;BME280;30041;48.300;16.352;2022-12-18T11:19:37;101704.19;;;21.15;39.52
43312;BME280;30041;48.300;16.352;2022-12-18T11:22:19;101707.53;;;21.17;39.71
43312;BME280;30041;48.300;16.352;2022-12-18T11:24:59;101699.72;;;21.22;39.75
43312;BME280;30041;48.300;16.352;2022-12-18T11:27:28;101703.06;;;21.24;39.85
43312;BME280;30041;48.300;16.352;2022-12-18T11:30:08;101708.28;;;21.26;39.96
43312;BME280;30041;48.300;16.352;2022-12-18T11:32:40;101706.25;;;21.28;39.99
43312;BME280;30041;48.300;16.352;2022-12-18T11:35:24;101700.84;;;21.28;40.11
43312;BME280;30041;48.300;16.352;2022-12-18T11:38:04;101700.66;;;21.29;39.92
43312;BME280;30041;48.300;16.352;2022-12-18T11:40:41;101688.72;;;21.39;39.94
43312;BME280;30041;48.300;16.352;2022-12-18T11:43:16;101697.81;;;21.46;39.74
43312;BME280;30041;48.300;16.352;2022-12-18T11:45:54;101689.31;;;21.49;39.72
43312;BME280;30041;48.300;16.352;2022-12-18T11:48:44;101688.28;;;21.50;39.67
43312;BME280;30041;48.300;16.352;2022-12-18T11:51:38;101681.50;;;21.54;39.67
43312;BME280;30041;48.300;16.352;2022-12-18T11:54:14;101677.78;;;21.55;39.57
43312;BME280;30041;48.300;16.352;2022-12-18T11:56:51;101680.47;;;21.55;39.68
43312;BME280;30041;48.300;16.352;2022-12-18T11:59:32;101674.88;;;21.56;39.77
43312;BME280;30041;48.300;16.352;2022-12-18T12:05:20;101682.97;;;21.56;39.85
43312;BME280;30041;48.300;16.352;2022-12-18T12:08:02;101684.84;;;21.56;39.96
43312;BME280;30041;48.300;16.352;2022-12-18T12:10:56;101689.22;;;21.57;39.82
43312;BME280;30041;48.300;16.352;2022-12-18T12:16:25;101683.72;;;21.65;40.30
43312;BME280;30041;48.300;16.352;2022-12-18T12:19:07;101675.81;;;21.64;40.85
43312;BME280;30041;48.300;16.352;2022-12-18T12:21:43;101677.47;;;21.65;40.71
43312;BME280;30041;48.300;16.352;2022-12-18T12:29:45;101681.56;;;21.61;40.79
43312;BME280;30041;48.300;16.352;2022-12-18T12:32:45;101677.41;;;21.58;40.85
43312;BME280;30041;48.300;16.352;2022-12-18T12:38:15;101668.66;;;21.56;40.95
43312;BME280;30041;48.300;16.352;2022-12-18T12:41:07;101659.56;;;21.57;40.83
43312;BME280;30041;48.300;16.352;2022-12-18T12:43:41;101669.56;;;21.63;40.80
43312;BME280;30041;48.300;16.352;2022-12-18T12:46:13;101666.88;;;21.63;40.80
43312;BME280;30041;48.300;16.352;2022-12-18T12:51:26;101670.59;;;21.62;40.81
43312;BME280;30041;48.300;16.352;2022-12-18T12:53:57;101670.22;;;21.65;40.86
43312;BME280;30041;48.300;16.352;2022-12-18T12:56:31;101674.97;;;21.63;40.91
43312;BME280;30041;48.300;16.352;2022-12-18T12:59:22;101675.34;;;21.60;40.81
43312;BME280;30041;48.300;16.352;2022-12-18T13:07:32;101675.59;;;21.65;40.93
43312;BME280;30041;48.300;16.352;2022-12-18T13:13:03;101683.06;;;21.63;40.98
43312;BME280;30041;48.300;16.352;2022-12-18T13:20:44;101691.81;;;21.65;41.12
43312;BME280;30041;48.300;16.352;2022-12-18T13:34:19;101690.78;;;21.66;40.90
43312;BME280;30041;48.300;16.352;2022-12-18T13:36:45;101692.44;;;21.67;41.19
43312;BME280;30041;48.300;16.352;2022-12-18T13:41:43;101697.84;;;21.67;41.25
43312;BME280;30041;48.300;16.352;2022-12-18T13:44:34;101691.81;;;21.65;40.92
43312;BME280;30041;48.300;16.352;2022-12-18T13:47:24;101696.19;;;21.66;41.17
43312;BME280;30041;48.300;16.352;2022-12-18T13:49:54;101703.72;;;21.71;41.15
43312;BME280;30041;48.300;16.352;2022-12-18T13:52:34;101695.34;;;21.66;40.99
43312;BME280;30041;48.300;16.352;2022-12-18T13:55:05;101699.53;;;21.68;41.11
43312;BME280;30041;48.300;16.352;2022-12-18T13:57:36;101706.78;;;21.68;41.20
43312;BME280;30041;48.300;16.352;2022-12-18T14:00:27;101714.03;;;21.67;40.99
43312;BME280;30041;48.300;16.352;2022-12-18T14:02:53;101710.97;;;21.70;41.15
43312;BME280;30041;48.300;16.352;2022-12-18T14:05:29;101706.22;;;21.72;40.84
43312;BME280;30041;48.300;16.352;2022-12-18T14:07:58;101712.28;;;21.60;41.27
43312;BME280;30041;48.300;16.352;2022-12-18T14:10:25;101713.88;;;21.69;41.09
43312;BME280;30041;48.300;16.352;2022-12-18T14:12:51;101715.34;;;21.71;41.12
43312;BME280;30041;48.300;16.352;2022-12-18T14:17:53;101720.09;;;21.69;41.23
43312;BME280;30041;48.300;16.352;2022-12-18T14:20:20;101726.97;;;21.72;41.22
43312;BME280;30041;48.300;16.352;2022-12-18T14:22:50;101723.44;;;21.71;41.08
43312;BME280;30041;48.300;16.352;2022-12-18T14:25:30;101720.75;;;21.71;41.21
43312;BME280;30041;48.300;16.352;2022-12-18T14:28:14;101721.78;;;21.70;41.11